Time;durP1;ratioP1;P1;durP2;ratioP2;P2;SDS_P1;SDS_P2;PMS_P1;PMS_P2;Temp;Humidity;BMP_temperature;BMP_pressure;BME280_temperature;BME280_humidity;BME280_pressure;Samples;Min_cycle;Max_cycle;Signal;HPM_P1;HPM_P2
2022/09/25 00:01:29;;;;;;;7.87;4.70;;;;;;;10.54;100.00;95895.63;5037245;28;20564;-69
2022/09/25 00:03:56;;;;;;;8.87;4.50;;;;;;;10.65;100.00;95892.50;5036820;28;20212;-69
2022/09/25 00:06:26;;;;;;;8.43;5.00;;;;;;;10.72;100.00;95888.13;5036905;28;20720;-69
2022/09/25 00:08:54;;;;;;;14.37;5.80;;;;;;;10.70;100.00;95895.41;5037953;28;20248;-68
2022/09/25 00:11:23;;;;;;;11.57;5.77;;;;;;;10.78;100.00;95892.69;5037620;28;20213;-68
2022/09/25 00:13:49;;;;;;;9.93;5.53;;;;;;;10.77;100.00;95884.94;5037427;28;20197;-68
2022/09/25 00:16:19;;;;;;;10.67;5.57;;;;;;;10.87;100.00;95888.09;5037293;28;20665;-69
2022/09/25 00:21:33;;;;;;;11.67;5.80;;;;;;;10.89;100.00;95889.53;5032819;28;20209;-69
2022/09/25 00:24:02;;;;;;;13.30;6.40;;;;;;;10.93;100.00;95886.34;5036664;28;20975;-68
2022/09/25 00:26:30;;;;;;;15.10;6.07;;;;;;;11.01;100.00;95873.03;5036875;28;20221;-68
2022/09/25 00:28:57;;;;;;;11.03;6.03;;;;;;;10.98;100.00;95875.22;5037888;28;20244;-69
2022/09/25 00:31:25;;;;;;;20.13;7.67;;;;;;;11.06;100.00;95872.47;5037205;28;20205;-69
2022/09/25 00:33:52;;;;;;;25.57;8.07;;;;;;;11.06;100.00;95870.66;5036634;28;20200;-69
2022/09/25 00:36:19;;;;;;;16.60;7.87;;;;;;;11.04;100.00;95871.84;5036590;28;20198;-69
2022/09/25 00:38:47;;;;;;;16.27;7.97;;;;;;;11.16;100.00;95867.69;5037255;28;20709;-69
2022/09/25 00:41:16;;;;;;;19.57;8.80;;;;;;;11.19;100.00;95869.97;5036212;28;20665;-69
2022/09/25 00:43:45;;;;;;;17.73;7.37;;;;;;;11.26;100.00;95870.81;5036961;28;20209;-68
2022/09/25 00:46:15;;;;;;;17.50;7.67;;;;;;;11.29;100.00;95873.91;5037157;28;20225;-69
2022/09/25 00:48:48;;;;;;;13.83;7.50;;;;;;;11.39;100.00;95865.66;5037024;28;20229;-69
2022/09/25 00:51:16;;;;;;;21.07;8.23;;;;;;;11.34;100.00;95862.78;5036498;28;20205;-69
2022/09/25 00:53:43;;;;;;;19.03;9.00;;;;;;;11.32;100.00;95864.81;5037443;28;20566;-69
2022/09/25 00:56:13;;;;;;;18.67;8.83;;;;;;;11.37;100.00;95857.94;5036722;28;20228;-69
2022/09/25 00:58:41;;;;;;;18.33;8.67;;;;;;;11.43;100.00;95851.91;5036180;28;20312;-68
2022/09/25 01:01:08;;;;;;;19.67;9.90;;;;;;;11.43;100.00;95841.38;5036470;28;20435;-69
2022/09/25 01:03:36;;;;;;;18.60;9.90;;;;;;;11.49;100.00;95839.78;5035297;28;20681;-68
2022/09/25 01:06:02;;;;;;;18.30;8.80;;;;;;;11.51;100.00;95835.97;5036832;28;20225;-69
2022/09/25 01:08:31;;;;;;;28.83;9.73;;;;;;;11.52;100.00;95836.78;5036010;28;20576;-69
2022/09/25 01:10:57;;;;;;;21.97;9.90;;;;;;;11.52;100.00;95837.59;5036806;28;20301;-69
2022/09/25 01:13:27;;;;;;;20.10;9.40;;;;;;;11.62;100.00;95836.25;5035243;28;20210;-69
2022/09/25 01:15:59;;;;;;;23.27;9.83;;;;;;;11.64;100.00;95838.69;5036936;28;20471;-69
2022/09/25 01:18:41;;;;;;;22.33;9.77;;;;;;;11.75;100.00;95832.88;5035628;28;20831;-69
2022/09/25 01:21:25;;;;;;;21.03;9.83;;;;;;;11.76;100.00;95837.13;5033223;28;20652;-69
2022/09/25 01:24:04;;;;;;;21.73;10.27;;;;;;;11.76;100.00;95831.84;5035383;28;20213;-69
2022/09/25 01:26:54;;;;;;;24.20;9.87;;;;;;;11.81;100.00;95824.19;5036506;28;20443;-69
2022/09/25 01:29:27;;;;;;;26.63;12.03;;;;;;;11.81;100.00;95818.91;5036343;28;20688;-69
2022/09/25 01:32:02;;;;;;;25.40;12.00;;;;;;;11.84;100.00;95823.81;5036232;28;20201;-69
2022/09/25 01:34:33;;;;;;;27.53;12.30;;;;;;;11.67;100.00;95817.19;5034965;28;20208;-69
2022/09/25 01:37:08;;;;;;;27.03;12.13;;;;;;;11.82;100.00;95823.97;5036160;28;20201;-68
2022/09/25 01:39:39;;;;;;;29.30;12.40;;;;;;;11.86;100.00;95819.13;5035355;28;20774;-68
2022/09/25 01:42:13;;;;;;;33.43;13.53;;;;;;;11.92;100.00;95823.66;5035940;28;20228;-69
2022/09/25 01:44:47;;;;;;;29.02;12.55;;;;;;;11.98;100.00;95825.50;5035319;28;20215;-69
2022/09/25 01:47:21;;;;;;;29.17;13.37;;;;;;;12.00;100.00;95823.47;5035797;28;20209;-68
2022/09/25 01:49:52;;;;;;;30.83;12.97;;;;;;;11.91;100.00;95829.94;5035831;28;20712;-69
2022/09/25 01:52:25;;;;;;;31.10;12.97;;;;;;;11.97;100.00;95827.31;5035796;28;20209;-68
2022/09/25 01:54:56;;;;;;;32.72;13.75;;;;;;;11.99;100.00;95832.41;5035634;28;20228;-69
2022/09/25 01:57:27;;;;;;;28.63;12.17;;;;;;;11.99;100.00;95827.94;5036338;28;20204;-68
2022/09/25 02:00:01;;;;;;;33.53;13.40;;;;;;;11.97;100.00;95823.88;5035747;28;20312;-69
2022/09/25 02:02:32;;;;;;;38.73;12.70;;;;;;;12.01;100.00;95828.56;5034799;28;20201;-68
2022/09/25 02:05:05;;;;;;;34.77;14.17;;;;;;;12.04;100.00;95822.06;5036119;28;20486;-69
2022/09/25 02:07:37;;;;;;;32.53;14.37;;;;;;;12.03;100.00;95817.78;5036650;28;20690;-69
2022/09/25 02:10:10;;;;;;;30.17;13.20;;;;;;;12.07;100.00;95819.06;5035331;28;21028;-69
2022/09/25 02:12:43;;;;;;;35.07;14.17;;;;;;;12.05;100.00;95821.88;5030668;28;20373;-68
2022/09/25 02:15:15;;;;;;;36.57;13.23;;;;;;;12.07;100.00;95824.34;5035656;28;20570;-69
2022/09/25 02:20:35;;;;;;;31.03;13.43;;;;;;;12.08;100.00;95829.41;5032245;28;20232;-69
2022/09/25 02:23:08;;;;;;;33.60;12.57;;;;;;;12.01;100.00;95822.47;5035675;28;20255;-69
2022/09/25 02:25:40;;;;;;;31.30;12.40;;;;;;;12.06;100.00;95822.69;5034631;28;20781;-69
2022/09/25 02:28:07;;;;;;;30.73;12.35;;;;;;;11.95;100.00;95815.31;5035446;28;20303;-69
2022/09/25 02:30:35;;;;;;;30.03;13.07;;;;;;;12.07;100.00;95821.69;5035480;28;20894;-69
2022/09/25 02:33:01;;;;;;;31.40;12.63;;;;;;;11.89;100.00;95819.56;5035201;28;20220;-69
2022/09/25 02:35:28;;;;;;;30.07;13.10;;;;;;;11.96;100.00;95828.31;5034965;28;20205;-69
2022/09/25 02:37:56;;;;;;;30.00;13.43;;;;;;;12.03;100.00;95833.63;5036094;28;20797;-69
2022/09/25 02:40:29;;;;;;;28.70;11.88;;;;;;;12.05;100.00;95829.00;5035198;28;20776;-69
2022/09/25 02:43:03;;;;;;;27.60;11.97;;;;;;;12.13;100.00;95831.47;5034843;28;20201;-69
2022/09/25 02:45:39;;;;;;;25.43;11.50;;;;;;;12.11;100.00;95825.56;5037349;28;20216;-68
2022/09/25 02:48:14;;;;;;;28.83;12.67;;;;;;;12.09;100.00;95832.88;5039614;28;20197;-69
2022/09/25 02:50:47;;;;;;;24.80;11.80;;;;;;;12.13;100.00;95834.94;5038795;28;20232;-69
2022/09/25 02:53:18;;;;;;;27.70;11.30;;;;;;;12.12;100.00;95835.09;5038458;28;20208;-69
2022/09/25 02:55:50;;;;;;;25.77;12.00;;;;;;;12.10;100.00;95830.03;5038883;28;20197;-69
2022/09/25 02:58:21;;;;;;;27.35;11.50;;;;;;;12.09;100.00;95828.38;5038867;28;20472;-69
2022/09/25 03:00:53;;;;;;;26.98;11.88;;;;;;;12.20;100.00;95830.47;5038488;28;20454;-69
2022/09/25 03:03:23;;;;;;;24.73;11.63;;;;;;;12.13;100.00;95821.72;5038706;28;20197;-69
2022/09/25 03:05:52;;;;;;;27.60;11.70;;;;;;;12.16;100.00;95814.19;5038495;28;20213;-69
2022/09/25 03:11:15;;;;;;;26.30;11.13;;;;;;;12.15;100.00;95811.75;4994165;28;20201;-69
2022/09/25 03:13:42;;;;;;;25.73;10.90;;;;;;;12.12;100.00;95814.81;5038211;28;20449;-69
2022/09/25 03:16:18;;;;;;;25.67;11.87;;;;;;;12.22;100.00;95813.44;5038775;28;20669;-69
2022/09/25 03:18:45;;;;;;;27.05;12.07;;;;;;;12.08;100.00;95810.94;5039764;28;20221;-69
2022/09/25 03:21:12;;;;;;;28.50;11.37;;;;;;;12.13;100.00;95812.97;5035911;28;20201;-69
2022/09/25 03:23:38;;;;;;;29.67;11.23;;;;;;;12.05;100.00;95810.50;5038451;28;20216;-69
2022/09/25 03:26:05;;;;;;;27.33;11.80;;;;;;;12.05;100.00;95810.50;5038325;28;20235;-69
2022/09/25 03:28:31;;;;;;;33.40;12.87;;;;;;;12.07;100.00;95811.94;5038556;28;20205;-69
2022/09/25 03:30:59;;;;;;;29.93;12.33;;;;;;;12.12;100.00;95808.69;5038598;28;20205;-69
2022/09/25 03:33:28;;;;;;;25.37;11.13;;;;;;;12.14;100.00;95804.84;5037826;28;20658;-69
2022/09/25 03:36:04;;;;;;;29.67;11.90;;;;;;;12.21;100.00;95801.22;5038776;28;20570;-69
2022/09/25 03:38:30;;;;;;;25.60;11.50;;;;;;;12.13;100.00;95799.75;5037841;28;20700;-69
2022/09/25 03:40:57;;;;;;;25.70;10.93;;;;;;;12.13;100.00;95799.75;5038473;28;20220;-69
2022/09/25 03:43:23;;;;;;;29.85;11.20;;;;;;;12.05;100.00;95800.75;5037281;28;20228;-69
2022/09/25 03:45:50;;;;;;;29.23;12.13;;;;;;;12.13;100.00;95789.19;5038637;28;20896;-69
2022/09/25 03:48:16;;;;;;;30.47;13.00;;;;;;;12.16;100.00;95793.06;5038355;28;20201;-69
2022/09/25 03:50:45;;;;;;;28.13;12.40;;;;;;;12.20;100.00;95796.94;5038140;28;20232;-68
2022/09/25 03:53:11;;;;;;;31.60;13.07;;;;;;;12.05;100.00;95800.75;5037041;28;20201;-69
2022/09/25 03:55:38;;;;;;;25.73;11.90;;;;;;;12.03;100.00;95801.94;5037819;28;20220;-69
2022/09/25 03:58:04;;;;;;;29.35;11.48;;;;;;;12.06;100.00;95801.56;5037567;28;20400;-69
2022/09/25 04:00:31;;;;;;;23.88;10.85;;;;;;;12.12;100.00;95801.59;5037708;28;20983;-69
2022/09/25 04:02:58;;;;;;;23.43;9.93;;;;;;;12.02;100.00;95805.63;5037288;28;20215;-68
2022/09/25 04:05:24;;;;;;;19.80;8.87;;;;;;;12.06;100.00;95804.22;5037749;28;20234;-68
2022/09/25 04:07:52;;;;;;;18.93;8.73;;;;;;;12.05;100.00;95799.94;5037790;28;20236;-69
2022/09/25 04:10:19;;;;;;;22.00;10.43;;;;;;;11.96;100.00;95801.13;5037988;28;20252;-69
2022/09/25 04:12:45;;;;;;;22.83;9.57;;;;;;;11.98;100.00;95799.91;5036837;28;20366;-69
2022/09/25 04:15:12;;;;;;;20.23;9.00;;;;;;;11.93;100.00;95798.88;5038003;28;20227;-69
2022/09/25 04:17:38;;;;;;;19.92;8.32;;;;;;;11.92;100.00;95799.88;5037149;28;20700;-69
2022/09/25 04:20:05;;;;;;;17.42;7.53;;;;;;;11.95;100.00;95810.03;5038016;28;20958;-68
2022/09/25 04:22:32;;;;;;;20.23;7.53;;;;;;;11.89;100.00;95811.66;5034390;28;20197;-68
2022/09/25 04:24:59;;;;;;;16.80;7.53;;;;;;;12.00;100.00;95815.56;5037433;28;20693;-69
2022/09/25 04:27:26;;;;;;;17.20;8.00;;;;;;;11.98;100.00;95820.22;5037724;28;20230;-69
2022/09/25 04:29:53;;;;;;;18.70;7.67;;;;;;;11.94;100.00;95813.69;5038339;28;20221;-69
2022/09/25 04:35:04;;;;;;;16.87;7.80;;;;;;;11.98;100.00;95810.47;5037134;28;20228;-69
2022/09/25 04:37:31;;;;;;;19.23;7.57;;;;;;;12.02;100.00;95809.06;5037783;28;20197;-68
2022/09/25 04:39:58;;;;;;;19.27;9.10;;;;;;;12.12;100.00;95813.97;5037138;28;20225;-69
2022/09/25 04:42:26;;;;;;;24.93;9.63;;;;;;;12.09;100.00;95815.19;5036671;28;20816;-69
2022/09/25 04:44:54;;;;;;;20.00;9.43;;;;;;;12.03;100.00;95820.44;5037424;28;20217;-69
2022/09/25 04:47:21;;;;;;;19.92;7.60;;;;;;;12.01;100.00;95819.81;5037378;28;20244;-69
2022/09/25 04:49:47;;;;;;;15.63;7.53;;;;;;;11.97;100.00;95815.94;5036849;28;20725;-69
2022/09/25 04:52:15;;;;;;;20.03;8.87;;;;;;;12.00;100.00;95819.00;5035928;28;20209;-68
2022/09/25 04:54:42;;;;;;;19.23;8.57;;;;;;;12.00;100.00;95818.19;5036985;28;20208;-68
2022/09/25 04:57:08;;;;;;;18.13;7.90;;;;;;;11.98;100.00;95814.94;5037181;28;20201;-69
2022/09/25 04:59:37;;;;;;;15.43;7.27;;;;;;;12.01;100.00;95810.06;5037058;28;20229;-68
2022/09/25 05:02:03;;;;;;;16.13;7.72;;;;;;;12.01;100.00;95809.25;5036854;28;20716;-69
2022/09/25 05:04:30;;;;;;;17.53;7.93;;;;;;;11.93;100.00;95812.06;5035315;28;20208;-69
2022/09/25 05:06:56;;;;;;;16.90;8.23;;;;;;;11.98;100.00;95813.13;5037204;28;20229;-69
2022/09/25 05:09:23;;;;;;;17.23;7.70;;;;;;;12.05;100.00;95821.06;5035665;28;20224;-69
2022/09/25 05:11:49;;;;;;;15.30;7.43;;;;;;;11.99;100.00;95821.84;5033992;28;20275;-68
2022/09/25 05:14:16;;;;;;;18.43;8.40;;;;;;;12.01;100.00;95819.81;5036165;28;20691;-69
2022/09/25 05:16:45;;;;;;;15.05;7.72;;;;;;;12.13;100.00;95823.53;5037326;28;20208;-69
2022/09/25 05:19:12;;;;;;;17.27;8.10;;;;;;;12.10;100.00;95824.75;5036198;28;20279;-69
2022/09/25 05:21:38;;;;;;;17.43;8.27;;;;;;;12.09;100.00;95822.31;5034088;28;20215;-69
2022/09/25 05:24:07;;;;;;;17.15;8.68;;;;;;;12.19;100.00;95811.19;5036096;28;20208;-70
2022/09/25 05:26:34;;;;;;;14.50;7.60;;;;;;;12.21;100.00;95808.34;5040138;28;20788;-69
2022/09/25 05:29:00;;;;;;;15.83;7.63;;;;;;;12.17;100.00;95813.19;5042979;28;21107;-69
2022/09/25 05:31:28;;;;;;;18.40;8.27;;;;;;;12.23;100.00;95806.31;5044386;28;20212;-69
2022/09/25 05:33:55;;;;;;;15.37;7.40;;;;;;;12.30;100.00;95812.44;5042790;28;20197;-69
2022/09/25 05:36:22;;;;;;;16.87;7.47;;;;;;;12.25;100.00;95807.75;5038392;28;20197;-69
2022/09/25 05:38:48;;;;;;;16.23;8.50;;;;;;;12.35;100.00;95808.19;5040568;28;20236;-69
2022/09/25 05:41:15;;;;;;;17.50;7.63;;;;;;;12.36;100.00;95807.19;5038310;28;20204;-69
2022/09/25 05:43:43;;;;;;;17.13;8.13;;;;;;;12.37;100.00;95805.34;5035414;28;20205;-70
2022/09/25 05:46:10;;;;;;;16.87;7.90;;;;;;;12.32;100.00;95803.31;5035709;28;20205;-69
2022/09/25 05:48:37;;;;;;;17.33;7.90;;;;;;;12.35;100.00;95813.47;5036085;28;20244;-69
2022/09/25 05:51:06;;;;;;;17.27;8.00;;;;;;;12.44;100.00;95804.34;5038397;28;20208;-70
2022/09/25 05:53:33;;;;;;;18.83;9.13;;;;;;;12.41;100.00;95806.56;5040139;28;20205;-69
2022/09/25 05:56:02;;;;;;;23.48;10.75;;;;;;;12.50;100.00;95811.50;5034399;28;20208;-70
2022/09/25 05:58:30;;;;;;;25.08;11.13;;;;;;;12.54;100.00;95802.16;5034967;28;20198;-68
2022/09/25 06:01:00;;;;;;;23.87;10.87;;;;;;;12.58;100.00;95811.31;5035005;28;21090;-68
2022/09/25 06:03:28;;;;;;;17.98;8.35;;;;;;;12.51;100.00;95814.94;5034623;28;20199;-70
2022/09/25 06:05:55;;;;;;;18.25;8.77;;;;;;;12.55;100.00;95806.44;5033987;28;20320;-71
2022/09/25 06:08:23;;;;;;;20.35;8.82;;;;;;;12.63;100.00;95806.25;5036870;28;20229;-69
2022/09/25 06:10:52;;;;;;;18.07;9.47;;;;;;;12.72;100.00;95809.53;5033278;28;20654;-69
2022/09/25 06:13:19;;;;;;;24.48;10.32;;;;;;;12.64;100.00;95807.06;5032766;28;20657;-69
2022/09/25 06:15:47;;;;;;;22.80;8.83;;;;;;;12.62;100.00;95817.81;5032484;28;20208;-70
2022/09/25 06:18:13;;;;;;;17.13;7.78;;;;;;;12.70;100.00;95812.34;5033576;28;20756;-71
2022/09/25 06:20:40;;;;;;;15.23;7.15;;;;;;;12.64;100.00;95818.47;5034570;28;21065;-70
2022/09/25 06:23:06;;;;;;;17.30;7.53;;;;;;;12.70;100.00;95811.53;5038570;28;20204;-70
2022/09/25 06:25:35;;;;;;;17.73;8.53;;;;;;;12.60;100.00;95814.59;5037970;28;20681;-70
2022/09/25 06:28:02;;;;;;;15.23;7.13;;;;;;;12.65;100.00;95811.34;5040238;28;20701;-70
2022/09/25 06:30:32;;;;;;;17.33;7.93;;;;;;;12.72;100.00;95810.34;5041249;28;20224;-70
2022/09/25 06:33:00;;;;;;;16.30;7.50;;;;;;;12.78;100.00;95807.69;5041811;28;20296;-70
2022/09/25 06:35:28;;;;;;;16.00;7.63;;;;;;;12.79;100.00;95801.41;5039532;28;20201;-69
2022/09/25 06:37:57;;;;;;;15.60;7.67;;;;;;;12.59;100.00;95815.59;5042799;28;20246;-70
2022/09/25 06:40:25;;;;;;;15.03;7.07;;;;;;;12.65;100.00;95806.84;5041377;28;20306;-71
2022/09/25 06:42:56;;;;;;;15.17;7.27;;;;;;;12.68;100.00;95814.41;5041106;28;20300;-70
2022/09/25 06:45:23;;;;;;;15.10;7.40;;;;;;;12.61;100.00;95821.47;5041673;28;20239;-70
2022/09/25 06:47:49;;;;;;;14.07;6.78;;;;;;;12.59;100.00;95827.97;5040486;28;20220;-69
2022/09/25 06:50:16;;;;;;;16.38;7.53;;;;;;;12.75;100.00;95828.44;5042565;28;20584;-69
2022/09/25 06:52:43;;;;;;;17.50;7.90;;;;;;;12.81;100.00;95830.28;5041877;28;20230;-70
2022/09/25 06:55:10;;;;;;;19.13;7.78;;;;;;;12.75;100.00;95827.63;5042122;28;20216;-70
2022/09/25 06:57:37;;;;;;;13.93;7.03;;;;;;;12.77;100.00;95831.69;5041547;28;20208;-70
2022/09/25 07:00:06;;;;;;;16.33;6.97;;;;;;;12.93;100.00;95834.00;5043025;28;20679;-70
2022/09/25 07:05:18;;;;;;;13.98;6.97;;;;;;;12.85;100.00;95828.88;5040617;28;20877;-70
2022/09/25 07:07:45;;;;;;;12.73;6.47;;;;;;;12.77;100.00;95829.06;5040480;28;20308;-71
2022/09/25 07:10:11;;;;;;;15.20;7.25;;;;;;;12.79;100.00;95824.38;5039756;28;20727;-70
2022/09/25 07:12:40;;;;;;;14.38;7.22;;;;;;;12.82;100.00;95831.91;5039725;28;20205;-71
2022/09/25 07:15:10;;;;;;;12.77;6.60;;;;;;;12.93;100.00;95834.81;5041223;28;20291;-70
2022/09/25 07:17:37;;;;;;;11.85;6.25;;;;;;;12.82;100.00;95835.38;5040505;28;20305;-70
2022/09/25 07:20:04;;;;;;;11.52;6.13;;;;;;;12.97;100.00;95832.56;5038860;28;20231;-70
2022/09/25 07:22:30;;;;;;;12.73;6.50;;;;;;;12.92;100.00;95833.19;5039307;28;20212;-71
2022/09/25 07:24:57;;;;;;;11.80;6.17;;;;;;;12.85;100.00;95828.88;5039994;28;20204;-70
2022/09/25 07:27:23;;;;;;;12.25;7.00;;;;;;;12.92;100.00;95827.09;5039366;28;20221;-69
2022/09/25 07:29:51;;;;;;;11.75;6.15;;;;;;;12.99;100.00;95833.19;5040505;28;21046;-70
2022/09/25 07:32:19;;;;;;;17.17;7.00;;;;;;;13.16;100.00;95829.97;5037517;28;20220;-71
2022/09/25 07:34:50;;;;;;;13.18;7.03;;;;;;;13.10;100.00;95829.97;5035257;28;20709;-69
2022/09/25 07:37:17;;;;;;;12.93;6.55;;;;;;;13.08;100.00;95824.06;5042404;28;20692;-69
2022/09/25 07:39:44;;;;;;;17.48;7.50;;;;;;;13.07;100.00;95830.34;5037576;28;21174;-69
2022/09/25 07:42:11;;;;;;;15.80;7.57;;;;;;;13.05;100.00;95827.13;5038064;28;21066;-69
2022/09/25 07:44:38;;;;;;;13.20;7.17;;;;;;;13.04;100.00;95822.84;5037900;28;20204;-69
2022/09/25 07:47:05;;;;;;;10.57;5.72;;;;;;;12.89;100.00;95823.03;5038686;28;20300;-69
2022/09/25 07:49:33;;;;;;;12.35;5.78;;;;;;;12.86;100.00;95833.19;5036435;28;20713;-69
2022/09/25 07:52:00;;;;;;;12.73;6.22;;;;;;;12.78;100.00;95841.28;5036804;28;20205;-69
2022/09/25 07:54:27;;;;;;;12.97;6.47;;;;;;;12.77;100.00;95829.84;5036240;28;21058;-69
2022/09/25 07:56:53;;;;;;;13.18;6.25;;;;;;;12.67;100.00;95833.91;5038297;28;20654;-69
2022/09/25 07:59:20;;;;;;;12.80;6.10;;;;;;;12.76;100.00;95838.81;5036527;28;20244;-69
2022/09/25 08:01:46;;;;;;;13.77;6.53;;;;;;;12.61;100.00;95839.97;5034688;28;20196;-69
2022/09/25 08:04:13;;;;;;;13.13;6.70;;;;;;;12.51;100.00;95841.38;5034980;28;20205;-69
2022/09/25 08:06:41;;;;;;;20.65;6.97;;;;;;;12.67;100.00;95838.38;5037467;28;20590;-69
2022/09/25 08:09:07;;;;;;;12.77;6.40;;;;;;;12.59;100.00;95835.91;5036613;28;20229;-69
2022/09/25 08:11:34;;;;;;;17.63;7.43;;;;;;;12.65;100.00;95845.69;5036631;28;20209;-69
2022/09/25 08:14:00;;;;;;;17.97;7.93;;;;;;;12.59;100.00;95838.53;5035495;28;20723;-69
2022/09/25 08:16:27;;;;;;;15.25;7.32;;;;;;;12.68;100.00;95838.19;5035149;28;20659;-70
2022/09/25 08:18:53;;;;;;;17.17;7.73;;;;;;;12.58;100.00;95837.75;5036124;28;20225;-70
2022/09/25 08:21:20;;;;;;;19.60;7.40;;;;;;;12.56;100.00;95831.81;5035780;28;20224;-70
2022/09/25 08:23:51;;;;;;;17.03;7.53;;;;;;;12.46;100.00;95839.34;5035436;28;20197;-70
2022/09/25 08:26:19;;;;;;;16.80;7.13;;;;;;;12.44;100.00;95838.72;5035455;28;20193;-69
2022/09/25 08:28:46;;;;;;;16.93;7.53;;;;;;;12.60;100.00;95835.72;5033385;28;20279;-70
2022/09/25 08:31:13;;;;;;;15.65;7.13;;;;;;;12.63;100.00;95837.97;5034659;28;20205;-70
2022/09/25 08:33:43;;;;;;;15.70;6.87;;;;;;;12.78;100.00;95831.50;5034520;28;20213;-71
2022/09/25 08:36:10;;;;;;;16.10;7.37;;;;;;;12.76;100.00;95828.22;5032587;28;20212;-70
2022/09/25 08:38:36;;;;;;;18.15;7.82;;;;;;;12.73;100.00;95817.25;5035870;28;20194;-70
2022/09/25 08:41:09;;;;;;;16.73;7.80;;;;;;;12.94;100.00;95820.56;5036653;28;20213;-71
2022/09/25 08:43:40;;;;;;;19.77;8.82;;;;;;;12.93;100.00;95831.34;5034721;28;20292;-71
2022/09/25 08:49:04;;;;;;;19.92;7.75;;;;;;;12.82;100.00;95826.63;5035845;28;20291;-70
2022/09/25 08:51:34;;;;;;;17.27;7.87;;;;;;;12.86;100.00;95826.03;5035994;28;20214;-70
2022/09/25 08:54:03;;;;;;;17.03;7.93;;;;;;;12.89;100.00;95822.19;5042780;28;20208;-70
2022/09/25 08:56:34;;;;;;;17.37;7.53;;;;;;;13.18;100.00;95819.19;5041873;28;20229;-70
2022/09/25 08:59:04;;;;;;;16.67;8.17;;;;;;;13.30;100.00;95810.44;5041558;28;20600;-70
2022/09/25 09:01:43;;;;;;;18.85;8.05;;;;;;;13.43;100.00;95815.72;5033726;28;20936;-71
2022/09/25 09:04:19;;;;;;;18.67;8.75;;;;;;;13.51;100.00;95811.03;5033382;28;20232;-70
2022/09/25 09:06:48;;;;;;;20.35;9.43;;;;;;;13.30;100.00;95812.25;5035782;28;20266;-71
2022/09/25 09:09:19;;;;;;;18.10;8.77;;;;;;;13.29;100.00;95802.69;5036204;28;20225;-70
2022/09/25 09:11:52;;;;;;;18.95;9.18;;;;;;;13.12;100.00;95812.03;5035181;28;20216;-70
2022/09/25 09:14:21;;;;;;;18.92;8.38;;;;;;;13.14;100.00;95817.97;5036693;28;20209;-71
2022/09/25 09:16:54;;;;;;;18.73;8.30;;;;;;;13.24;100.00;95813.91;5037610;28;20208;-71
2022/09/25 09:19:20;;;;;;;16.42;7.55;;;;;;;13.13;100.00;95821.63;5033573;28;20256;-69
2022/09/25 09:21:54;;;;;;;21.20;8.20;;;;;;;13.12;100.00;95820.81;5035734;28;20212;-69
2022/09/25 09:24:27;;;;;;;15.93;7.63;;;;;;;13.00;100.00;95824.25;5035495;28;21676;-69
2022/09/25 09:27:17;;;;;;;17.77;7.27;;;;;;;12.97;100.00;95819.34;5036131;28;20210;-68
2022/09/25 09:29:55;;;;;;;17.27;7.97;;;;;;;13.12;100.00;95818.16;5035497;28;20229;-69
2022/09/25 09:32:36;;;;;;;19.87;7.17;;;;;;;13.26;100.00;95824.28;5034353;28;20213;-70
2022/09/25 09:35:14;;;;;;;16.20;7.67;;;;;;;13.45;100.00;95817.16;5033842;28;20661;-69
2022/09/25 09:37:52;;;;;;;14.53;6.37;;;;;;;13.50;100.00;95816.53;5035818;28;20209;-69
2022/09/25 09:40:30;;;;;;;18.02;7.93;;;;;;;13.65;100.00;95815.28;5036083;28;20571;-69
2022/09/25 09:43:14;;;;;;;16.97;8.03;;;;;;;13.64;100.00;95810.19;5034255;28;20216;-69
2022/09/25 09:45:47;;;;;;;18.58;7.75;;;;;;;13.62;100.00;95813.06;5035774;28;20215;-69
2022/09/25 09:48:20;;;;;;;16.17;7.43;;;;;;;13.76;100.00;95805.91;5034473;28;20255;-70
2022/09/25 09:50:50;;;;;;;15.50;7.87;;;;;;;13.99;100.00;95809.72;5035652;28;20209;-69
2022/09/25 09:53:26;;;;;;;20.70;8.57;;;;;;;14.29;100.00;95808.22;5034532;28;20201;-69
2022/09/25 09:55:59;;;;;;;20.05;8.05;;;;;;;14.36;100.00;95814.34;5035282;28;20209;-70
2022/09/25 09:58:30;;;;;;;16.85;7.80;;;;;;;14.51;100.00;95809.56;5035030;28;20205;-71
2022/09/25 10:00:58;;;;;;;14.75;7.47;;;;;;;14.74;100.00;95808.84;5035917;28;20204;-71
2022/09/25 10:03:27;;;;;;;16.52;7.88;;;;;;;14.98;100.00;95807.25;5034597;28;20212;-70
2022/09/25 10:05:58;;;;;;;17.33;8.00;;;;;;;15.31;100.00;95798.88;5035664;28;20312;-71
2022/09/25 10:08:25;;;;;;;16.80;7.90;;;;;;;15.14;100.00;95804.91;5034817;28;20226;-72
2022/09/25 10:10:53;;;;;;;17.52;7.47;;;;;;;15.47;100.00;95792.22;5034741;28;20224;-71
2022/09/25 10:13:23;;;;;;;14.05;7.18;;;;;;;15.84;100.00;95790.22;5031497;28;20225;-70
2022/09/25 10:15:55;;;;;;;15.52;7.28;;;;;;;16.14;100.00;95788.47;5035591;28;20624;-70
2022/09/25 10:18:23;;;;;;;12.77;6.35;;;;;;;16.26;97.51;95786.72;5034902;28;20574;-71
2022/09/25 10:20:57;;;;;;;13.00;6.50;;;;;;;16.30;95.39;95790.56;5035849;28;20205;-70
2022/09/25 10:23:37;;;;;;;13.98;7.38;;;;;;;15.88;99.75;95787.94;5033427;28;20217;-72
2022/09/25 10:26:09;;;;;;;14.45;7.07;;;;;;;15.85;100.00;95783.88;5034731;28;20691;-70
2022/09/25 10:28:36;;;;;;;14.48;7.10;;;;;;;15.79;100.00;95783.94;5035912;28;20332;-70
2022/09/25 10:31:07;;;;;;;17.30;6.50;;;;;;;15.80;99.28;95780.25;5039387;28;20735;-70
2022/09/25 10:33:34;;;;;;;11.60;6.30;;;;;;;15.93;100.00;95782.78;5035755;28;20213;-70
2022/09/25 10:36:01;;;;;;;13.93;6.60;;;;;;;16.07;96.25;95778.94;5033823;28;20209;-70
2022/09/25 10:38:48;;;;;;;13.88;6.80;;;;;;;16.24;95.78;95778.13;5038025;28;20540;-70
2022/09/25 10:41:16;;;;;;;12.90;6.40;;;;;;;16.06;97.89;95779.97;5037479;28;20204;-70
2022/09/25 10:43:52;;;;;;;10.80;6.05;;;;;;;16.07;95.71;95782.41;5043704;28;20205;-70
2022/09/25 10:50:09;;;;;;;14.45;6.82;;;;;;;15.84;99.39;95782.25;5042088;28;20278;-71
2022/09/25 10:52:05;;;;;;;13.02;6.70;;;;;;;16.42;97.87;95785.31;5035111;28;20216;-70
2022/09/25 10:54:32;;;;;;;13.75;6.85;;;;;;;16.77;96.55;95789.75;5032310;28;20225;-70
2022/09/25 10:56:59;;;;;;;14.55;7.72;;;;;;;16.92;91.74;95784.84;5035168;28;20700;-70
2022/09/25 10:59:27;;;;;;;16.50;7.35;;;;;;;17.17;93.06;95789.78;5034879;28;20220;-70
2022/09/25 11:01:55;;;;;;;13.27;6.80;;;;;;;16.89;92.95;95785.28;5034952;28;20216;-71
2022/09/25 11:04:24;;;;;;;13.35;6.82;;;;;;;16.70;97.45;95789.03;5033845;28;20554;-70
2022/09/25 11:06:54;;;;;;;14.80;7.10;;;;;;;16.63;95.18;95793.63;5035747;28;20216;-70
2022/09/25 11:09:23;;;;;;;14.30;6.80;;;;;;;16.28;95.73;95789.16;5035423;28;21002;-71
2022/09/25 11:11:52;;;;;;;12.77;6.55;;;;;;;16.29;95.63;95793.44;5038700;28;20205;-71
2022/09/25 11:14:28;;;;;;;13.80;7.53;;;;;;;16.10;100.00;95791.78;5036071;28;20201;-70
2022/09/25 11:16:57;;;;;;;12.60;6.65;;;;;;;16.24;99.65;95798.56;5041608;28;20246;-70
2022/09/25 11:19:27;;;;;;;15.82;6.88;;;;;;;16.47;96.30;95793.44;5039273;28;20639;-70
2022/09/25 11:22:16;;;;;;;16.65;7.93;;;;;;;16.57;96.70;95792.69;5035698;28;20201;-71
2022/09/25 11:24:59;;;;;;;16.50;7.32;;;;;;;16.76;93.20;95783.63;5035730;28;20216;-70
2022/09/25 11:27:32;;;;;;;12.88;6.63;;;;;;;16.60;98.47;95776.25;5035455;28;20580;-71
2022/09/25 11:30:05;;;;;;;14.95;7.30;;;;;;;16.37;95.96;95772.69;5036711;28;20729;-71
2022/09/25 11:32:41;;;;;;;13.80;6.97;;;;;;;16.48;95.24;95763.94;5036185;28;20239;-71
2022/09/25 11:35:26;;;;;;;15.13;7.18;;;;;;;16.54;96.46;95763.06;5035855;28;20215;-71
2022/09/25 11:38:04;;;;;;;15.95;6.90;;;;;;;16.74;95.17;95750.31;5037809;28;20205;-71
2022/09/25 11:43:38;;;;;;;14.35;7.28;;;;;;;16.54;97.41;95739.91;5030384;28;20267;-71
2022/09/25 11:46:13;;;;;;;14.43;7.35;;;;;;;16.59;94.96;95739.25;5038866;28;20205;-71
2022/09/25 11:48:54;;;;;;;16.30;7.57;;;;;;;16.82;93.46;95739.34;5037143;28;20227;-72
2022/09/25 11:51:34;;;;;;;14.27;6.97;;;;;;;16.91;93.04;95743.28;5037391;28;20666;-69